sensor_id;sensor_type;location;lat;lon;timestamp;temperature;humidity
12408;DHT22;6268;48.188;17.134;2023-07-22T00:00:31;20.70;99.90
12408;DHT22;6268;48.188;17.134;2023-07-22T00:03:53;20.80;99.90
12408;DHT22;6268;48.188;17.134;2023-07-22T00:07:14;20.70;99.90
12408;DHT22;6268;48.188;17.134;2023-07-22T00:10:40;20.60;99.90
12408;DHT22;6268;48.188;17.134;2023-07-22T00:14:01;20.70;99.90
12408;DHT22;6268;48.188;17.134;2023-07-22T00:17:23;20.50;99.90
12408;DHT22;6268;48.188;17.134;2023-07-22T00:20:44;20.50;99.90
12408;DHT22;6268;48.188;17.134;2023-07-22T00:24:06;20.50;99.90
12408;DHT22;6268;48.188;17.134;2023-07-22T00:27:29;20.60;99.90
12408;DHT22;6268;48.188;17.134;2023-07-22T00:30:50;20.60;99.90
12408;DHT22;6268;48.188;17.134;2023-07-22T00:34:12;20.70;99.90
12408;DHT22;6268;48.188;17.134;2023-07-22T00:37:33;20.70;99.90
12408;DHT22;6268;48.188;17.134;2023-07-22T00:40:55;20.70;99.90
12408;DHT22;6268;48.188;17.134;2023-07-22T00:44:18;20.70;99.90
12408;DHT22;6268;48.188;17.134;2023-07-22T00:47:40;20.70;99.90
12408;DHT22;6268;48.188;17.134;2023-07-22T00:51:01;20.70;99.90
12408;DHT22;6268;48.188;17.134;2023-07-22T00:54:24;20.70;99.90
12408;DHT22;6268;48.188;17.134;2023-07-22T00:57:45;20.60;99.90
12408;DHT22;6268;48.188;17.134;2023-07-22T01:01:08;20.60;99.90
12408;DHT22;6268;48.188;17.134;2023-07-22T01:04:33;20.70;99.90
12408;DHT22;6268;48.188;17.134;2023-07-22T01:07:56;20.60;99.90
12408;DHT22;6268;48.188;17.134;2023-07-22T01:11:17;20.60;99.90
12408;DHT22;6268;48.188;17.134;2023-07-22T01:14:41;20.60;99.90
12408;DHT22;6268;48.188;17.134;2023-07-22T01:18:06;20.50;99.90
12408;DHT22;6268;48.188;17.134;2023-07-22T01:21:28;20.60;99.90
12408;DHT22;6268;48.188;17.134;2023-07-22T01:24:52;20.60;99.90
12408;DHT22;6268;48.188;17.134;2023-07-22T01:28:13;20.50;99.90
12408;DHT22;6268;48.188;17.134;2023-07-22T01:31:35;20.40;99.90
12408;DHT22;6268;48.188;17.134;2023-07-22T01:34:56;20.40;99.90
12408;DHT22;6268;48.188;17.134;2023-07-22T01:38:17;20.40;99.90
12408;DHT22;6268;48.188;17.134;2023-07-22T01:41:40;20.30;99.90
12408;DHT22;6268;48.188;17.134;2023-07-22T01:45:01;20.30;99.90
12408;DHT22;6268;48.188;17.134;2023-07-22T01:48:23;20.30;99.90
12408;DHT22;6268;48.188;17.134;2023-07-22T01:51:44;20.30;99.90
12408;DHT22;6268;48.188;17.134;2023-07-22T01:55:06;20.30;99.90
12408;DHT22;6268;48.188;17.134;2023-07-22T01:58:29;20.30;99.90
12408;DHT22;6268;48.188;17.134;2023-07-22T02:01:50;20.20;99.90
12408;DHT22;6268;48.188;17.134;2023-07-22T02:05:12;20.20;99.90
12408;DHT22;6268;48.188;17.134;2023-07-22T02:08:33;20.10;99.90
12408;DHT22;6268;48.188;17.134;2023-07-22T02:11:55;20.00;99.90
12408;DHT22;6268;48.188;17.134;2023-07-22T02:15:17;19.90;99.90
12408;DHT22;6268;48.188;17.134;2023-07-22T02:22:19;20.00;99.90
12408;DHT22;6268;48.188;17.134;2023-07-22T02:25:40;19.90;99.90
12408;DHT22;6268;48.188;17.134;2023-07-22T02:29:02;19.80;99.90
12408;DHT22;6268;48.188;17.134;2023-07-22T02:32:24;19.80;99.90
12408;DHT22;6268;48.188;17.134;2023-07-22T02:35:47;19.70;99.90
12408;DHT22;6268;48.188;17.134;2023-07-22T02:39:08;19.60;99.90
12408;DHT22;6268;48.188;17.134;2023-07-22T02:42:34;19.60;99.90
12408;DHT22;6268;48.188;17.134;2023-07-22T02:45:56;19.60;99.90
12408;DHT22;6268;48.188;17.134;2023-07-22T02:49:18;19.60;99.90
12408;DHT22;6268;48.188;17.134;2023-07-22T02:52:39;19.60;99.90
12408;DHT22;6268;48.188;17.134;2023-07-22T02:56:01;19.50;99.90
12408;DHT22;6268;48.188;17.134;2023-07-22T02:59:22;19.50;99.90
12408;DHT22;6268;48.188;17.134;2023-07-22T03:02:51;19.50;99.90
12408;DHT22;6268;48.188;17.134;2023-07-22T03:06:14;19.40;99.90
12408;DHT22;6268;48.188;17.134;2023-07-22T03:09:35;19.50;99.90
12408;DHT22;6268;48.188;17.134;2023-07-22T03:12:57;19.50;99.90
12408;DHT22;6268;48.188;17.134;2023-07-22T03:16:18;19.50;99.90
12408;DHT22;6268;48.188;17.134;2023-07-22T03:19:39;19.50;99.90
12408;DHT22;6268;48.188;17.134;2023-07-22T03:23:02;19.50;99.90
12408;DHT22;6268;48.188;17.134;2023-07-22T03:26:23;19.50;99.90
12408;DHT22;6268;48.188;17.134;2023-07-22T03:29:44;19.50;99.90
12408;DHT22;6268;48.188;17.134;2023-07-22T03:33:05;19.50;99.90
12408;DHT22;6268;48.188;17.134;2023-07-22T03:36:27;19.60;99.90
12408;DHT22;6268;48.188;17.134;2023-07-22T03:39:50;19.60;99.90
12408;DHT22;6268;48.188;17.134;2023-07-22T03:43:11;19.60;99.90
12408;DHT22;6268;48.188;17.134;2023-07-22T03:46:33;19.70;99.90
12408;DHT22;6268;48.188;17.134;2023-07-22T03:49:54;19.70;99.90
12408;DHT22;6268;48.188;17.134;2023-07-22T03:53:22;19.80;99.90
12408;DHT22;6268;48.188;17.134;2023-07-22T03:56:44;19.70;99.90
12408;DHT22;6268;48.188;17.134;2023-07-22T04:00:07;19.80;99.90
12408;DHT22;6268;48.188;17.134;2023-07-22T04:03:28;19.80;99.90
12408;DHT22;6268;48.188;17.134;2023-07-22T04:06:50;19.90;99.90
12408;DHT22;6268;48.188;17.134;2023-07-22T04:10:12;20.00;99.90
12408;DHT22;6268;48.188;17.134;2023-07-22T04:13:35;20.00;99.90
12408;DHT22;6268;48.188;17.134;2023-07-22T04:16:56;20.10;99.90
12408;DHT22;6268;48.188;17.134;2023-07-22T04:20:17;20.00;99.90
12408;DHT22;6268;48.188;17.134;2023-07-22T04:23:39;20.00;99.90
12408;DHT22;6268;48.188;17.134;2023-07-22T04:27:00;20.00;99.90
12408;DHT22;6268;48.188;17.134;2023-07-22T04:30:23;20.00;99.90
12408;DHT22;6268;48.188;17.134;2023-07-22T04:33:45;19.90;99.90
12408;DHT22;6268;48.188;17.134;2023-07-22T04:37:07;20.00;99.90
12408;DHT22;6268;48.188;17.134;2023-07-22T04:40:30;20.20;99.90
12408;DHT22;6268;48.188;17.134;2023-07-22T04:43:52;20.30;99.90
12408;DHT22;6268;48.188;17.134;2023-07-22T04:47:14;20.60;99.90
12408;DHT22;6268;48.188;17.134;2023-07-22T04:50:35;21.00;99.90
12408;DHT22;6268;48.188;17.134;2023-07-22T04:53:57;21.60;99.90
12408;DHT22;6268;48.188;17.134;2023-07-22T04:57:18;22.10;99.90
12408;DHT22;6268;48.188;17.134;2023-07-22T05:00:39;22.50;99.90
12408;DHT22;6268;48.188;17.134;2023-07-22T05:04:02;23.00;99.90
12408;DHT22;6268;48.188;17.134;2023-07-22T05:07:23;23.60;99.90
12408;DHT22;6268;48.188;17.134;2023-07-22T05:10:45;23.60;99.90
12408;DHT22;6268;48.188;17.134;2023-07-22T05:14:06;24.10;99.90
12408;DHT22;6268;48.188;17.134;2023-07-22T05:17:27;24.50;99.90
12408;DHT22;6268;48.188;17.134;2023-07-22T05:20:50;25.00;99.90
12408;DHT22;6268;48.188;17.134;2023-07-22T05:24:11;25.50;99.90
12408;DHT22;6268;48.188;17.134;2023-07-22T05:27:33;26.40;96.90
12408;DHT22;6268;48.188;17.134;2023-07-22T05:30:55;26.70;94.40
12408;DHT22;6268;48.188;17.134;2023-07-22T05:34:17;26.90;92.40
12408;DHT22;6268;48.188;17.134;2023-07-22T05:37:39;27.40;91.00
12408;DHT22;6268;48.188;17.134;2023-07-22T05:41:00;28.10;87.40
12408;DHT22;6268;48.188;17.134;2023-07-22T05:44:22;28.60;82.30
12408;DHT22;6268;48.188;17.134;2023-07-22T05:47:43;28.80;79.60
12408;DHT22;6268;48.188;17.134;2023-07-22T05:51:04;29.00;77.60
12408;DHT22;6268;48.188;17.134;2023-07-22T05:54:27;29.10;75.20
12408;DHT22;6268;48.188;17.134;2023-07-22T05:57:48;29.10;74.00
12408;DHT22;6268;48.188;17.134;2023-07-22T06:01:10;28.70;74.10
12408;DHT22;6268;48.188;17.134;2023-07-22T06:04:32;28.50;74.40
12408;DHT22;6268;48.188;17.134;2023-07-22T06:07:53;28.70;74.20
12408;DHT22;6268;48.188;17.134;2023-07-22T06:11:16;28.00;72.80
12408;DHT22;6268;48.188;17.134;2023-07-22T06:14:37;27.90;74.70
12408;DHT22;6268;48.188;17.134;2023-07-22T06:17:59;27.70;74.70
12408;DHT22;6268;48.188;17.134;2023-07-22T06:21:20;28.00;74.60
12408;DHT22;6268;48.188;17.134;2023-07-22T06:24:41;28.40;73.10
12408;DHT22;6268;48.188;17.134;2023-07-22T06:28:05;28.30;72.00
12408;DHT22;6268;48.188;17.134;2023-07-22T06:31:26;28.10;73.20
12408;DHT22;6268;48.188;17.134;2023-07-22T06:34:47;29.10;71.20
12408;DHT22;6268;48.188;17.134;2023-07-22T06:38:08;29.40;68.90
12408;DHT22;6268;48.188;17.134;2023-07-22T06:41:30;29.10;68.60
12408;DHT22;6268;48.188;17.134;2023-07-22T06:44:54;28.60;70.20
12408;DHT22;6268;48.188;17.134;2023-07-22T06:48:15;28.70;69.60
12408;DHT22;6268;48.188;17.134;2023-07-22T06:51:37;29.30;69.00
12408;DHT22;6268;48.188;17.134;2023-07-22T06:54:58;29.70;67.30
12408;DHT22;6268;48.188;17.134;2023-07-22T06:58:20;29.80;64.60
12408;DHT22;6268;48.188;17.134;2023-07-22T07:01:42;29.90;65.70
12408;DHT22;6268;48.188;17.134;2023-07-22T07:05:04;29.80;64.80
12408;DHT22;6268;48.188;17.134;2023-07-22T07:08:26;29.90;64.70
12408;DHT22;6268;48.188;17.134;2023-07-22T07:11:47;30.50;63.20
12408;DHT22;6268;48.188;17.134;2023-07-22T07:15:09;31.20;61.80
12408;DHT22;6268;48.188;17.134;2023-07-22T07:18:47;31.30;61.10
12408;DHT22;6268;48.188;17.134;2023-07-22T07:22:08;31.50;60.00
12408;DHT22;6268;48.188;17.134;2023-07-22T07:25:29;31.70;59.80
12408;DHT22;6268;48.188;17.134;2023-07-22T07:28:53;31.10;58.90
12408;DHT22;6268;48.188;17.134;2023-07-22T07:32:17;31.10;58.10
12408;DHT22;6268;48.188;17.134;2023-07-22T07:35:40;30.90;58.50
12408;DHT22;6268;48.188;17.134;2023-07-22T07:39:01;31.80;57.20
12408;DHT22;6268;48.188;17.134;2023-07-22T07:42:26;32.20;55.90
12408;DHT22;6268;48.188;17.134;2023-07-22T07:45:48;32.00;54.80
12408;DHT22;6268;48.188;17.134;2023-07-22T07:49:09;32.10;54.70
12408;DHT22;6268;48.188;17.134;2023-07-22T07:52:32;31.50;54.30
12408;DHT22;6268;48.188;17.134;2023-07-22T07:55:53;31.80;54.00
12408;DHT22;6268;48.188;17.134;2023-07-22T07:59:15;31.60;53.50
12408;DHT22;6268;48.188;17.134;2023-07-22T08:02:37;31.60;52.70
12408;DHT22;6268;48.188;17.134;2023-07-22T08:05:59;31.70;52.80
12408;DHT22;6268;48.188;17.134;2023-07-22T08:09:21;31.70;52.00
12408;DHT22;6268;48.188;17.134;2023-07-22T08:12:42;32.50;52.10
12408;DHT22;6268;48.188;17.134;2023-07-22T08:16:05;33.00;50.50
12408;DHT22;6268;48.188;17.134;2023-07-22T08:19:27;32.80;50.60
12408;DHT22;6268;48.188;17.134;2023-07-22T08:22:48;33.00;49.70
12408;DHT22;6268;48.188;17.134;2023-07-22T08:26:14;32.60;49.30
12408;DHT22;6268;48.188;17.134;2023-07-22T08:29:36;32.30;50.70
12408;DHT22;6268;48.188;17.134;2023-07-22T08:32:57;33.10;50.00
12408;DHT22;6268;48.188;17.134;2023-07-22T08:36:19;33.40;49.00
12408;DHT22;6268;48.188;17.134;2023-07-22T08:39:40;33.70;48.60
12408;DHT22;6268;48.188;17.134;2023-07-22T08:43:04;33.80;47.50
12408;DHT22;6268;48.188;17.134;2023-07-22T08:46:29;33.90;47.40
12408;DHT22;6268;48.188;17.134;2023-07-22T08:49:54;32.90;47.20
12408;DHT22;6268;48.188;17.134;2023-07-22T08:53:20;31.60;48.10
12408;DHT22;6268;48.188;17.134;2023-07-22T08:56:42;30.80;48.30
12408;DHT22;6268;48.188;17.134;2023-07-22T09:00:07;30.40;49.00
12408;DHT22;6268;48.188;17.134;2023-07-22T09:03:29;30.10;49.20
12408;DHT22;6268;48.188;17.134;2023-07-22T09:06:51;30.10;49.50
12408;DHT22;6268;48.188;17.134;2023-07-22T09:10:15;29.80;50.10
12408;DHT22;6268;48.188;17.134;2023-07-22T09:13:37;30.00;49.60
12408;DHT22;6268;48.188;17.134;2023-07-22T09:17:05;30.10;49.40
12408;DHT22;6268;48.188;17.134;2023-07-22T09:20:27;30.60;49.60
12408;DHT22;6268;48.188;17.134;2023-07-22T09:23:49;30.70;49.70
12408;DHT22;6268;48.188;17.134;2023-07-22T09:27:10;30.80;48.80
12408;DHT22;6268;48.188;17.134;2023-07-22T09:30:34;30.80;48.80
12408;DHT22;6268;48.188;17.134;2023-07-22T09:34:09;31.20;48.20
12408;DHT22;6268;48.188;17.134;2023-07-22T09:37:37;32.00;47.40
12408;DHT22;6268;48.188;17.134;2023-07-22T09:40:59;32.40;46.20
12408;DHT22;6268;48.188;17.134;2023-07-22T09:44:20;32.30;45.80
12408;DHT22;6268;48.188;17.134;2023-07-22T09:47:43;33.00;44.80
12408;DHT22;6268;48.188;17.134;2023-07-22T09:51:15;33.10;44.50
12408;DHT22;6268;48.188;17.134;2023-07-22T09:54:47;32.90;44.10
12408;DHT22;6268;48.188;17.134;2023-07-22T09:58:08;33.20;44.50
12408;DHT22;6268;48.188;17.134;2023-07-22T10:01:33;33.10;44.50
12408;DHT22;6268;48.188;17.134;2023-07-22T10:04:58;33.30;43.90
12408;DHT22;6268;48.188;17.134;2023-07-22T10:08:22;32.80;44.50
12408;DHT22;6268;48.188;17.134;2023-07-22T10:11:45;32.90;44.90
12408;DHT22;6268;48.188;17.134;2023-07-22T10:15:08;32.90;44.20
12408;DHT22;6268;48.188;17.134;2023-07-22T10:18:32;32.80;43.50
12408;DHT22;6268;48.188;17.134;2023-07-22T10:21:53;33.00;43.80
12408;DHT22;6268;48.188;17.134;2023-07-22T10:25:17;33.10;43.60
12408;DHT22;6268;48.188;17.134;2023-07-22T10:28:42;32.50;44.70
12408;DHT22;6268;48.188;17.134;2023-07-22T10:32:05;32.90;43.90
12408;DHT22;6268;48.188;17.134;2023-07-22T10:35:39;33.20;42.70
12408;DHT22;6268;48.188;17.134;2023-07-22T10:39:01;33.20;42.80
12408;DHT22;6268;48.188;17.134;2023-07-22T10:42:27;32.70;43.30
12408;DHT22;6268;48.188;17.134;2023-07-22T10:45:55;32.60;43.30
12408;DHT22;6268;48.188;17.134;2023-07-22T10:49:29;32.30;42.70
12408;DHT22;6268;48.188;17.134;2023-07-22T10:53:11;32.00;43.40
12408;DHT22;6268;48.188;17.134;2023-07-22T10:56:40;32.60;43.20
12408;DHT22;6268;48.188;17.134;2023-07-22T11:00:18;32.70;43.10
12408;DHT22;6268;48.188;17.134;2023-07-22T11:04:13;32.70;42.60
12408;DHT22;6268;48.188;17.134;2023-07-22T11:07:42;32.60;43.10
12408;DHT22;6268;48.188;17.134;2023-07-22T11:11:04;32.20;43.40
12408;DHT22;6268;48.188;17.134;2023-07-22T11:14:29;32.70;42.80
12408;DHT22;6268;48.188;17.134;2023-07-22T11:17:51;32.30;42.40
12408;DHT22;6268;48.188;17.134;2023-07-22T11:21:12;31.60;43.70
12408;DHT22;6268;48.188;17.134;2023-07-22T11:24:35;31.80;43.00
12408;DHT22;6268;48.188;17.134;2023-07-22T11:27:56;32.10;42.60
12408;DHT22;6268;48.188;17.134;2023-07-22T11:31:21;32.30;42.60
12408;DHT22;6268;48.188;17.134;2023-07-22T11:34:43;31.80;43.00
12408;DHT22;6268;48.188;17.134;2023-07-22T11:38:04;31.60;43.20
12408;DHT22;6268;48.188;17.134;2023-07-22T11:41:30;31.30;43.70
12408;DHT22;6268;48.188;17.134;2023-07-22T11:44:52;31.30;43.10
12408;DHT22;6268;48.188;17.134;2023-07-22T11:48:14;30.80;43.60
12408;DHT22;6268;48.188;17.134;2023-07-22T11:51:36;30.80;44.40
12408;DHT22;6268;48.188;17.134;2023-07-22T11:55:01;31.00;44.00
12408;DHT22;6268;48.188;17.134;2023-07-22T11:58:26;30.50;43.60
12408;DHT22;6268;48.188;17.134;2023-07-22T12:02:01;30.60;43.90
12408;DHT22;6268;48.188;17.134;2023-07-22T12:05:25;30.60;44.20
12408;DHT22;6268;48.188;17.134;2023-07-22T12:08:48;30.40;44.60
12408;DHT22;6268;48.188;17.134;2023-07-22T12:12:15;30.10;44.50
12408;DHT22;6268;48.188;17.134;2023-07-22T12:15:36;30.20;43.10
12408;DHT22;6268;48.188;17.134;2023-07-22T12:18:58;30.20;43.70
12408;DHT22;6268;48.188;17.134;2023-07-22T12:22:21;30.00;44.10
12408;DHT22;6268;48.188;17.134;2023-07-22T12:25:42;30.10;44.40
12408;DHT22;6268;48.188;17.134;2023-07-22T12:29:03;30.40;43.90
12408;DHT22;6268;48.188;17.134;2023-07-22T12:32:24;30.40;44.10
12408;DHT22;6268;48.188;17.134;2023-07-22T12:35:45;29.90;43.70
12408;DHT22;6268;48.188;17.134;2023-07-22T12:39:09;30.00;44.50
12408;DHT22;6268;48.188;17.134;2023-07-22T12:42:35;30.00;43.80
12408;DHT22;6268;48.188;17.134;2023-07-22T12:45:57;29.80;43.70
12408;DHT22;6268;48.188;17.134;2023-07-22T12:49:20;29.70;43.80
12408;DHT22;6268;48.188;17.134;2023-07-22T12:52:41;30.10;43.60
12408;DHT22;6268;48.188;17.134;2023-07-22T12:56:04;30.00;43.40
12408;DHT22;6268;48.188;17.134;2023-07-22T12:59:25;30.10;43.10
12408;DHT22;6268;48.188;17.134;2023-07-22T13:02:46;29.90;43.40
12408;DHT22;6268;48.188;17.134;2023-07-22T13:06:08;29.70;43.40
12408;DHT22;6268;48.188;17.134;2023-07-22T13:09:29;29.80;43.60
12408;DHT22;6268;48.188;17.134;2023-07-22T13:12:53;29.80;43.60
12408;DHT22;6268;48.188;17.134;2023-07-22T13:16:15;30.00;43.10
12408;DHT22;6268;48.188;17.134;2023-07-22T13:19:36;30.10;42.90
12408;DHT22;6268;48.188;17.134;2023-07-22T13:22:57;30.00;43.40
12408;DHT22;6268;48.188;17.134;2023-07-22T13:26:18;30.00;43.00
12408;DHT22;6268;48.188;17.134;2023-07-22T13:29:41;29.90;43.40
12408;DHT22;6268;48.188;17.134;2023-07-22T13:33:02;30.10;43.90
12408;DHT22;6268;48.188;17.134;2023-07-22T13:36:23;30.10;44.00
12408;DHT22;6268;48.188;17.134;2023-07-22T13:39:45;30.10;43.80
12408;DHT22;6268;48.188;17.134;2023-07-22T13:43:07;30.10;43.50
12408;DHT22;6268;48.188;17.134;2023-07-22T13:46:31;29.80;43.60
12408;DHT22;6268;48.188;17.134;2023-07-22T13:49:52;29.60;44.10
12408;DHT22;6268;48.188;17.134;2023-07-22T13:53:13;29.60;44.10
12408;DHT22;6268;48.188;17.134;2023-07-22T13:56:34;29.80;44.30
12408;DHT22;6268;48.188;17.134;2023-07-22T13:59:56;30.00;43.70
12408;DHT22;6268;48.188;17.134;2023-07-22T14:03:18;29.80;44.10
12408;DHT22;6268;48.188;17.134;2023-07-22T14:06:39;29.80;44.20
12408;DHT22;6268;48.188;17.134;2023-07-22T14:10:01;29.80;44.10
12408;DHT22;6268;48.188;17.134;2023-07-22T14:13:22;29.80;44.20
12408;DHT22;6268;48.188;17.134;2023-07-22T14:16:44;29.90;44.60
12408;DHT22;6268;48.188;17.134;2023-07-22T14:20:08;29.80;44.70
12408;DHT22;6268;48.188;17.134;2023-07-22T14:23:29;29.80;45.20
12408;DHT22;6268;48.188;17.134;2023-07-22T14:26:51;29.90;44.90
12408;DHT22;6268;48.188;17.134;2023-07-22T14:30:12;29.70;44.70
12408;DHT22;6268;48.188;17.134;2023-07-22T14:33:33;29.70;45.10
12408;DHT22;6268;48.188;17.134;2023-07-22T14:37:14;29.50;45.30
12408;DHT22;6268;48.188;17.134;2023-07-22T14:40:35;29.50;45.30
12408;DHT22;6268;48.188;17.134;2023-07-22T14:43:57;29.40;45.10
12408;DHT22;6268;48.188;17.134;2023-07-22T14:47:18;29.40;46.00
12408;DHT22;6268;48.188;17.134;2023-07-22T14:50:39;29.40;45.50
12408;DHT22;6268;48.188;17.134;2023-07-22T14:54:02;29.40;45.00
12408;DHT22;6268;48.188;17.134;2023-07-22T14:57:24;29.40;44.90
12408;DHT22;6268;48.188;17.134;2023-07-22T15:00:45;29.20;45.40
12408;DHT22;6268;48.188;17.134;2023-07-22T15:04:07;29.10;45.60
12408;DHT22;6268;48.188;17.134;2023-07-22T15:07:28;29.10;45.70
12408;DHT22;6268;48.188;17.134;2023-07-22T15:10:51;29.00;46.90
12408;DHT22;6268;48.188;17.134;2023-07-22T15:14:12;29.10;48.20
12408;DHT22;6268;48.188;17.134;2023-07-22T15:17:34;29.20;47.20
12408;DHT22;6268;48.188;17.134;2023-07-22T15:20:55;29.20;46.40
12408;DHT22;6268;48.188;17.134;2023-07-22T15:24:16;29.20;46.80
12408;DHT22;6268;48.188;17.134;2023-07-22T15:27:39;29.30;46.30
12408;DHT22;6268;48.188;17.134;2023-07-22T15:31:00;29.40;46.30
12408;DHT22;6268;48.188;17.134;2023-07-22T15:34:22;29.50;46.10
12408;DHT22;6268;48.188;17.134;2023-07-22T15:37:43;29.60;45.60
12408;DHT22;6268;48.188;17.134;2023-07-22T15:41:04;29.10;45.90
12408;DHT22;6268;48.188;17.134;2023-07-22T15:44:27;29.10;45.90
12408;DHT22;6268;48.188;17.134;2023-07-22T15:47:48;29.20;45.80
12408;DHT22;6268;48.188;17.134;2023-07-22T15:51:09;29.10;46.70
12408;DHT22;6268;48.188;17.134;2023-07-22T15:54:31;29.10;47.30
12408;DHT22;6268;48.188;17.134;2023-07-22T15:57:52;29.10;47.20
12408;DHT22;6268;48.188;17.134;2023-07-22T16:01:15;29.00;47.20
12408;DHT22;6268;48.188;17.134;2023-07-22T16:04:36;29.00;47.00
12408;DHT22;6268;48.188;17.134;2023-07-22T16:07:57;28.90;47.50
12408;DHT22;6268;48.188;17.134;2023-07-22T16:11:19;28.90;47.60
12408;DHT22;6268;48.188;17.134;2023-07-22T16:14:40;29.00;48.40
12408;DHT22;6268;48.188;17.134;2023-07-22T16:18:02;29.10;48.00
12408;DHT22;6268;48.188;17.134;2023-07-22T16:21:24;29.10;48.00
12408;DHT22;6268;48.188;17.134;2023-07-22T16:24:45;28.90;48.60
12408;DHT22;6268;48.188;17.134;2023-07-22T16:28:06;28.70;49.20
12408;DHT22;6268;48.188;17.134;2023-07-22T16:31:30;28.70;48.80
12408;DHT22;6268;48.188;17.134;2023-07-22T16:34:52;28.60;49.00
12408;DHT22;6268;48.188;17.134;2023-07-22T16:38:14;28.60;49.40
12408;DHT22;6268;48.188;17.134;2023-07-22T16:41:35;28.60;49.50
12408;DHT22;6268;48.188;17.134;2023-07-22T16:44:56;28.50;49.80
12408;DHT22;6268;48.188;17.134;2023-07-22T16:48:17;28.60;50.00
12408;DHT22;6268;48.188;17.134;2023-07-22T16:51:45;28.50;49.70
12408;DHT22;6268;48.188;17.134;2023-07-22T16:55:06;28.40;50.00
12408;DHT22;6268;48.188;17.134;2023-07-22T16:58:28;28.40;50.80
12408;DHT22;6268;48.188;17.134;2023-07-22T17:01:50;28.40;51.70
12408;DHT22;6268;48.188;17.134;2023-07-22T17:05:12;28.30;52.30
12408;DHT22;6268;48.188;17.134;2023-07-22T17:08:35;28.30;53.00
12408;DHT22;6268;48.188;17.134;2023-07-22T17:11:56;28.20;53.80
12408;DHT22;6268;48.188;17.134;2023-07-22T17:15:17;28.10;54.50
12408;DHT22;6268;48.188;17.134;2023-07-22T17:18:38;27.90;55.00
12408;DHT22;6268;48.188;17.134;2023-07-22T17:21:59;27.80;54.90
12408;DHT22;6268;48.188;17.134;2023-07-22T17:25:22;27.90;54.90
12408;DHT22;6268;48.188;17.134;2023-07-22T17:28:43;27.80;56.40
12408;DHT22;6268;48.188;17.134;2023-07-22T17:32:07;27.50;56.70
12408;DHT22;6268;48.188;17.134;2023-07-22T17:35:31;27.40;57.00
12408;DHT22;6268;48.188;17.134;2023-07-22T17:38:53;27.50;56.20
12408;DHT22;6268;48.188;17.134;2023-07-22T17:42:16;27.30;57.10
12408;DHT22;6268;48.188;17.134;2023-07-22T17:45:38;27.20;57.30
12408;DHT22;6268;48.188;17.134;2023-07-22T17:48:59;26.90;57.60
12408;DHT22;6268;48.188;17.134;2023-07-22T17:52:20;26.80;57.40
12408;DHT22;6268;48.188;17.134;2023-07-22T17:55:42;26.60;57.00
12408;DHT22;6268;48.188;17.134;2023-07-22T17:59:04;26.50;57.30
12408;DHT22;6268;48.188;17.134;2023-07-22T18:02:26;26.60;57.60
12408;DHT22;6268;48.188;17.134;2023-07-22T18:05:47;26.40;57.80
12408;DHT22;6268;48.188;17.134;2023-07-22T18:09:09;26.50;57.90
12408;DHT22;6268;48.188;17.134;2023-07-22T18:12:31;26.50;57.60
12408;DHT22;6268;48.188;17.134;2023-07-22T18:15:53;26.40;58.00
12408;DHT22;6268;48.188;17.134;2023-07-22T18:19:15;26.20;58.40
12408;DHT22;6268;48.188;17.134;2023-07-22T18:22:36;26.10;58.40
12408;DHT22;6268;48.188;17.134;2023-07-22T18:25:58;26.10;58.50
12408;DHT22;6268;48.188;17.134;2023-07-22T18:29:19;26.20;58.70
12408;DHT22;6268;48.188;17.134;2023-07-22T18:32:41;26.00;59.50
12408;DHT22;6268;48.188;17.134;2023-07-22T18:36:03;25.90;59.70
12408;DHT22;6268;48.188;17.134;2023-07-22T18:39:24;25.70;60.00
12408;DHT22;6268;48.188;17.134;2023-07-22T18:42:45;25.60;60.80
12408;DHT22;6268;48.188;17.134;2023-07-22T18:46:13;25.70;60.50
12408;DHT22;6268;48.188;17.134;2023-07-22T18:49:36;25.50;60.30
12408;DHT22;6268;48.188;17.134;2023-07-22T18:52:58;25.40;60.00
12408;DHT22;6268;48.188;17.134;2023-07-22T18:56:19;25.30;60.80
12408;DHT22;6268;48.188;17.134;2023-07-22T18:59:41;25.30;61.10
12408;DHT22;6268;48.188;17.134;2023-07-22T19:03:02;25.30;61.10
12408;DHT22;6268;48.188;17.134;2023-07-22T19:06:25;25.50;60.80
12408;DHT22;6268;48.188;17.134;2023-07-22T19:09:46;25.40;61.30
12408;DHT22;6268;48.188;17.134;2023-07-22T19:13:11;25.20;61.00
12408;DHT22;6268;48.188;17.134;2023-07-22T19:16:32;25.30;61.60
12408;DHT22;6268;48.188;17.134;2023-07-22T19:19:53;25.30;61.80
12408;DHT22;6268;48.188;17.134;2023-07-22T19:23:24;25.00;62.30
12408;DHT22;6268;48.188;17.134;2023-07-22T19:26:46;25.00;62.90
12408;DHT22;6268;48.188;17.134;2023-07-22T19:30:09;25.10;63.10
12408;DHT22;6268;48.188;17.134;2023-07-22T19:33:30;25.00;63.20
12408;DHT22;6268;48.188;17.134;2023-07-22T19:36:51;24.80;64.30
12408;DHT22;6268;48.188;17.134;2023-07-22T19:40:15;24.90;63.30
12408;DHT22;6268;48.188;17.134;2023-07-22T19:43:40;24.90;64.20
12408;DHT22;6268;48.188;17.134;2023-07-22T19:47:01;24.90;63.90
12408;DHT22;6268;48.188;17.134;2023-07-22T19:50:23;24.80;64.40
12408;DHT22;6268;48.188;17.134;2023-07-22T19:53:45;24.70;65.30
12408;DHT22;6268;48.188;17.134;2023-07-22T19:57:08;24.50;65.90
12408;DHT22;6268;48.188;17.134;2023-07-22T20:00:29;24.40;67.30
12408;DHT22;6268;48.188;17.134;2023-07-22T20:03:51;24.20;68.50
12408;DHT22;6268;48.188;17.134;2023-07-22T20:07:12;24.10;70.00
12408;DHT22;6268;48.188;17.134;2023-07-22T20:10:34;24.10;70.80
12408;DHT22;6268;48.188;17.134;2023-07-22T20:13:57;24.20;71.80
12408;DHT22;6268;48.188;17.134;2023-07-22T20:17:18;24.20;72.60
12408;DHT22;6268;48.188;17.134;2023-07-22T20:20:39;24.30;72.50
12408;DHT22;6268;48.188;17.134;2023-07-22T20:24:00;24.30;73.40
12408;DHT22;6268;48.188;17.134;2023-07-22T20:27:22;24.40;74.00
12408;DHT22;6268;48.188;17.134;2023-07-22T20:30:47;24.40;74.20
12408;DHT22;6268;48.188;17.134;2023-07-22T20:34:09;24.30;75.00
12408;DHT22;6268;48.188;17.134;2023-07-22T20:37:32;24.10;75.70
12408;DHT22;6268;48.188;17.134;2023-07-22T20:40:53;24.20;76.30
12408;DHT22;6268;48.188;17.134;2023-07-22T20:44:14;24.10;76.70
12408;DHT22;6268;48.188;17.134;2023-07-22T20:47:37;24.20;77.00
12408;DHT22;6268;48.188;17.134;2023-07-22T20:50:58;24.00;77.20
12408;DHT22;6268;48.188;17.134;2023-07-22T20:54:19;24.00;77.60
12408;DHT22;6268;48.188;17.134;2023-07-22T20:57:41;24.00;77.60
12408;DHT22;6268;48.188;17.134;2023-07-22T21:01:02;24.00;77.60
12408;DHT22;6268;48.188;17.134;2023-07-22T21:04:25;24.00;78.40
12408;DHT22;6268;48.188;17.134;2023-07-22T21:07:46;23.90;79.00
12408;DHT22;6268;48.188;17.134;2023-07-22T21:11:07;23.80;80.50
12408;DHT22;6268;48.188;17.134;2023-07-22T21:14:29;23.60;82.80
12408;DHT22;6268;48.188;17.134;2023-07-22T21:17:50;23.50;85.30
12408;DHT22;6268;48.188;17.134;2023-07-22T21:21:14;23.70;87.00